sensor_id;sensor_type;location;lat;lon;timestamp;temperature;humidity
23520;DHT22;11936;50.820;4.336;2022-10-16T00:01:13;15.50;99.90
23520;DHT22;11936;50.820;4.336;2022-10-16T00:03:40;15.50;99.90
23520;DHT22;11936;50.820;4.336;2022-10-16T00:06:06;15.60;99.90
23520;DHT22;11936;50.820;4.336;2022-10-16T00:08:33;15.70;99.90
23520;DHT22;11936;50.820;4.336;2022-10-16T00:13:29;15.60;99.90
23520;DHT22;11936;50.820;4.336;2022-10-16T00:15:56;15.40;99.90
23520;DHT22;11936;50.820;4.336;2022-10-16T00:18:22;15.40;99.90
23520;DHT22;11936;50.820;4.336;2022-10-16T00:20:48;15.30;99.90
23520;DHT22;11936;50.820;4.336;2022-10-16T00:23:14;15.40;99.90
23520;DHT22;11936;50.820;4.336;2022-10-16T00:25:39;15.30;99.90
23520;DHT22;11936;50.820;4.336;2022-10-16T00:28:05;15.20;99.90
23520;DHT22;11936;50.820;4.336;2022-10-16T00:30:30;15.20;99.90
23520;DHT22;11936;50.820;4.336;2022-10-16T00:32:56;15.20;99.90
23520;DHT22;11936;50.820;4.336;2022-10-16T00:35:21;15.20;99.90
23520;DHT22;11936;50.820;4.336;2022-10-16T00:37:47;15.20;99.90
23520;DHT22;11936;50.820;4.336;2022-10-16T00:40:13;15.10;99.90
23520;DHT22;11936;50.820;4.336;2022-10-16T00:42:39;15.10;99.90
23520;DHT22;11936;50.820;4.336;2022-10-16T00:45:05;15.20;99.90
23520;DHT22;11936;50.820;4.336;2022-10-16T00:47:33;15.20;99.90
23520;DHT22;11936;50.820;4.336;2022-10-16T00:50:22;15.20;99.90
23520;DHT22;11936;50.820;4.336;2022-10-16T00:52:50;15.10;99.90
23520;DHT22;11936;50.820;4.336;2022-10-16T00:55:17;15.20;99.90
23520;DHT22;11936;50.820;4.336;2022-10-16T00:57:43;15.10;99.90
23520;DHT22;11936;50.820;4.336;2022-10-16T01:00:12;15.10;99.90
23520;DHT22;11936;50.820;4.336;2022-10-16T01:02:37;15.20;99.90
23520;DHT22;11936;50.820;4.336;2022-10-16T01:05:04;15.20;99.90
23520;DHT22;11936;50.820;4.336;2022-10-16T01:07:56;15.20;99.90
23520;DHT22;11936;50.820;4.336;2022-10-16T01:13:10;15.20;99.90
23520;DHT22;11936;50.820;4.336;2022-10-16T01:15:45;15.00;99.90
23520;DHT22;11936;50.820;4.336;2022-10-16T01:18:19;15.00;99.90
23520;DHT22;11936;50.820;4.336;2022-10-16T01:20:55;15.00;99.90
23520;DHT22;11936;50.820;4.336;2022-10-16T01:31:27;15.10;99.90
23520;DHT22;11936;50.820;4.336;2022-10-16T01:34:00;15.10;99.90
23520;DHT22;11936;50.820;4.336;2022-10-16T01:36:35;15.10;99.90
23520;DHT22;11936;50.820;4.336;2022-10-16T01:39:02;15.20;99.90
23520;DHT22;11936;50.820;4.336;2022-10-16T01:41:32;15.20;99.90
23520;DHT22;11936;50.820;4.336;2022-10-16T01:44:14;15.10;99.90
23520;DHT22;11936;50.820;4.336;2022-10-16T01:46:46;15.10;99.90
23520;DHT22;11936;50.820;4.336;2022-10-16T01:49:13;15.00;99.90
23520;DHT22;11936;50.820;4.336;2022-10-16T01:51:38;15.10;99.90
23520;DHT22;11936;50.820;4.336;2022-10-16T01:54:07;15.10;99.90
23520;DHT22;11936;50.820;4.336;2022-10-16T01:56:34;15.00;99.90
23520;DHT22;11936;50.820;4.336;2022-10-16T02:01:30;14.90;99.90
23520;DHT22;11936;50.820;4.336;2022-10-16T02:03:59;15.00;99.90
23520;DHT22;11936;50.820;4.336;2022-10-16T02:06:26;15.10;99.90
23520;DHT22;11936;50.820;4.336;2022-10-16T02:08:51;15.10;99.90
23520;DHT22;11936;50.820;4.336;2022-10-16T02:11:17;15.00;99.90
23520;DHT22;11936;50.820;4.336;2022-10-16T02:13:46;15.10;99.90
23520;DHT22;11936;50.820;4.336;2022-10-16T02:16:14;14.90;99.90
23520;DHT22;11936;50.820;4.336;2022-10-16T02:18:40;15.00;99.90
23520;DHT22;11936;50.820;4.336;2022-10-16T02:21:23;14.90;99.90
23520;DHT22;11936;50.820;4.336;2022-10-16T02:26:27;14.90;99.90
23520;DHT22;11936;50.820;4.336;2022-10-16T02:29:00;14.90;99.90
23520;DHT22;11936;50.820;4.336;2022-10-16T02:31:28;14.90;99.90
23520;DHT22;11936;50.820;4.336;2022-10-16T02:33:58;14.70;99.90
23520;DHT22;11936;50.820;4.336;2022-10-16T02:36:25;14.70;99.90
23520;DHT22;11936;50.820;4.336;2022-10-16T02:38:52;14.60;99.90
23520;DHT22;11936;50.820;4.336;2022-10-16T02:41:20;14.60;99.90
23520;DHT22;11936;50.820;4.336;2022-10-16T02:43:46;14.70;99.90
23520;DHT22;11936;50.820;4.336;2022-10-16T02:46:11;14.80;99.90
23520;DHT22;11936;50.820;4.336;2022-10-16T02:48:37;14.80;99.90
23520;DHT22;11936;50.820;4.336;2022-10-16T02:51:03;14.90;99.90
23520;DHT22;11936;50.820;4.336;2022-10-16T02:53:28;14.90;99.90
23520;DHT22;11936;50.820;4.336;2022-10-16T02:55:54;14.90;99.90
23520;DHT22;11936;50.820;4.336;2022-10-16T02:58:19;14.80;99.90
23520;DHT22;11936;50.820;4.336;2022-10-16T03:00:45;14.80;99.90
23520;DHT22;11936;50.820;4.336;2022-10-16T03:03:11;14.80;99.90
23520;DHT22;11936;50.820;4.336;2022-10-16T03:05:36;14.80;99.90
23520;DHT22;11936;50.820;4.336;2022-10-16T03:08:02;14.70;99.90
23520;DHT22;11936;50.820;4.336;2022-10-16T03:10:28;14.60;99.90
23520;DHT22;11936;50.820;4.336;2022-10-16T03:12:53;14.60;99.90
23520;DHT22;11936;50.820;4.336;2022-10-16T03:15:19;14.70;99.90
23520;DHT22;11936;50.820;4.336;2022-10-16T03:17:44;14.80;99.90
23520;DHT22;11936;50.820;4.336;2022-10-16T03:20:10;14.80;99.90
23520;DHT22;11936;50.820;4.336;2022-10-16T03:22:36;14.80;99.90
23520;DHT22;11936;50.820;4.336;2022-10-16T03:25:02;14.80;99.90
23520;DHT22;11936;50.820;4.336;2022-10-16T03:27:27;14.90;99.90
23520;DHT22;11936;50.820;4.336;2022-10-16T03:29:53;14.90;99.90
23520;DHT22;11936;50.820;4.336;2022-10-16T03:32:18;15.00;99.90
23520;DHT22;11936;50.820;4.336;2022-10-16T03:34:45;15.00;99.90
23520;DHT22;11936;50.820;4.336;2022-10-16T03:37:11;15.10;99.90
23520;DHT22;11936;50.820;4.336;2022-10-16T03:39:36;15.10;99.90
23520;DHT22;11936;50.820;4.336;2022-10-16T03:42:02;15.10;99.90
23520;DHT22;11936;50.820;4.336;2022-10-16T03:44:34;15.00;99.90
23520;DHT22;11936;50.820;4.336;2022-10-16T03:46:59;15.00;99.90
23520;DHT22;11936;50.820;4.336;2022-10-16T03:49:25;15.00;99.90
23520;DHT22;11936;50.820;4.336;2022-10-16T03:51:50;15.00;99.90
23520;DHT22;11936;50.820;4.336;2022-10-16T03:54:16;14.80;99.90
23520;DHT22;11936;50.820;4.336;2022-10-16T03:56:42;14.90;99.90
23520;DHT22;11936;50.820;4.336;2022-10-16T03:59:07;14.90;99.90
23520;DHT22;11936;50.820;4.336;2022-10-16T04:01:33;15.00;99.90
23520;DHT22;11936;50.820;4.336;2022-10-16T04:03:58;15.00;99.90
23520;DHT22;11936;50.820;4.336;2022-10-16T04:06:24;14.90;99.90
23520;DHT22;11936;50.820;4.336;2022-10-16T04:08:49;14.70;99.90
23520;DHT22;11936;50.820;4.336;2022-10-16T04:11:15;14.60;99.90
23520;DHT22;11936;50.820;4.336;2022-10-16T04:13:40;14.60;99.90
23520;DHT22;11936;50.820;4.336;2022-10-16T04:16:06;14.70;99.90
23520;DHT22;11936;50.820;4.336;2022-10-16T04:18:32;14.70;99.90
23520;DHT22;11936;50.820;4.336;2022-10-16T04:21:03;14.80;99.90
23520;DHT22;11936;50.820;4.336;2022-10-16T04:23:28;14.80;99.90
23520;DHT22;11936;50.820;4.336;2022-10-16T04:25:54;14.70;99.90
23520;DHT22;11936;50.820;4.336;2022-10-16T04:28:20;14.80;99.90
23520;DHT22;11936;50.820;4.336;2022-10-16T04:30:45;14.80;99.90
23520;DHT22;11936;50.820;4.336;2022-10-16T04:33:11;14.70;99.90
23520;DHT22;11936;50.820;4.336;2022-10-16T04:35:38;14.80;99.90
23520;DHT22;11936;50.820;4.336;2022-10-16T04:38:03;14.90;99.90
23520;DHT22;11936;50.820;4.336;2022-10-16T04:40:29;14.90;99.90
23520;DHT22;11936;50.820;4.336;2022-10-16T04:42:58;14.80;99.90
23520;DHT22;11936;50.820;4.336;2022-10-16T04:45:24;14.80;99.90
23520;DHT22;11936;50.820;4.336;2022-10-16T04:47:49;14.70;99.90
23520;DHT22;11936;50.820;4.336;2022-10-16T04:50:15;14.80;99.90
23520;DHT22;11936;50.820;4.336;2022-10-16T04:52:41;14.70;99.90
23520;DHT22;11936;50.820;4.336;2022-10-16T04:55:07;14.70;99.90
23520;DHT22;11936;50.820;4.336;2022-10-16T04:57:32;14.80;99.90
23520;DHT22;11936;50.820;4.336;2022-10-16T04:59:58;14.90;99.90
23520;DHT22;11936;50.820;4.336;2022-10-16T05:02:28;14.90;99.90
23520;DHT22;11936;50.820;4.336;2022-10-16T05:04:53;14.90;99.90
23520;DHT22;11936;50.820;4.336;2022-10-16T05:07:19;14.80;99.90
23520;DHT22;11936;50.820;4.336;2022-10-16T05:09:45;14.70;99.90
23520;DHT22;11936;50.820;4.336;2022-10-16T05:12:10;14.70;99.90
23520;DHT22;11936;50.820;4.336;2022-10-16T05:14:36;14.60;99.90
23520;DHT22;11936;50.820;4.336;2022-10-16T05:17:01;14.60;99.90
23520;DHT22;11936;50.820;4.336;2022-10-16T05:19:27;14.60;99.90
23520;DHT22;11936;50.820;4.336;2022-10-16T05:21:52;14.60;99.90
23520;DHT22;11936;50.820;4.336;2022-10-16T05:24:18;14.60;99.90
23520;DHT22;11936;50.820;4.336;2022-10-16T05:26:43;14.60;99.90
23520;DHT22;11936;50.820;4.336;2022-10-16T05:29:09;14.70;99.90
23520;DHT22;11936;50.820;4.336;2022-10-16T05:31:35;14.70;99.90
23520;DHT22;11936;50.820;4.336;2022-10-16T05:34:01;14.60;99.90
23520;DHT22;11936;50.820;4.336;2022-10-16T05:36:26;14.70;99.90
23520;DHT22;11936;50.820;4.336;2022-10-16T05:38:52;14.60;99.90
23520;DHT22;11936;50.820;4.336;2022-10-16T05:41:18;14.70;99.90
23520;DHT22;11936;50.820;4.336;2022-10-16T05:43:48;14.50;99.90
23520;DHT22;11936;50.820;4.336;2022-10-16T05:46:15;14.60;99.90
23520;DHT22;11936;50.820;4.336;2022-10-16T05:48:40;14.60;99.90
23520;DHT22;11936;50.820;4.336;2022-10-16T05:51:08;14.70;99.90
23520;DHT22;11936;50.820;4.336;2022-10-16T05:53:36;14.60;99.90
23520;DHT22;11936;50.820;4.336;2022-10-16T05:56:02;14.50;99.90
23520;DHT22;11936;50.820;4.336;2022-10-16T05:58:30;14.50;99.90
23520;DHT22;11936;50.820;4.336;2022-10-16T06:01:02;14.50;99.90
23520;DHT22;11936;50.820;4.336;2022-10-16T06:03:28;14.50;99.90
23520;DHT22;11936;50.820;4.336;2022-10-16T06:05:54;14.60;99.90
23520;DHT22;11936;50.820;4.336;2022-10-16T06:08:20;14.80;99.90
23520;DHT22;11936;50.820;4.336;2022-10-16T06:10:47;14.90;99.90
23520;DHT22;11936;50.820;4.336;2022-10-16T06:13:13;15.10;99.90
23520;DHT22;11936;50.820;4.336;2022-10-16T06:15:40;15.00;99.90
23520;DHT22;11936;50.820;4.336;2022-10-16T06:18:09;14.90;99.90
23520;DHT22;11936;50.820;4.336;2022-10-16T06:20:36;14.70;99.90
23520;DHT22;11936;50.820;4.336;2022-10-16T06:23:02;14.80;99.90
23520;DHT22;11936;50.820;4.336;2022-10-16T06:25:30;14.80;99.90
23520;DHT22;11936;50.820;4.336;2022-10-16T06:27:55;14.80;99.90
23520;DHT22;11936;50.820;4.336;2022-10-16T06:30:21;14.80;99.90
23520;DHT22;11936;50.820;4.336;2022-10-16T06:32:46;14.70;99.90
23520;DHT22;11936;50.820;4.336;2022-10-16T06:35:12;14.70;99.90
23520;DHT22;11936;50.820;4.336;2022-10-16T06:37:37;14.60;99.90
23520;DHT22;11936;50.820;4.336;2022-10-16T06:40:03;14.60;99.90
23520;DHT22;11936;50.820;4.336;2022-10-16T06:42:29;14.60;99.90
23520;DHT22;11936;50.820;4.336;2022-10-16T06:44:55;14.50;99.90
23520;DHT22;11936;50.820;4.336;2022-10-16T06:47:21;14.60;99.90
23520;DHT22;11936;50.820;4.336;2022-10-16T06:49:46;14.70;99.90
23520;DHT22;11936;50.820;4.336;2022-10-16T06:52:12;14.60;99.90
23520;DHT22;11936;50.820;4.336;2022-10-16T06:54:38;14.60;99.90
23520;DHT22;11936;50.820;4.336;2022-10-16T06:57:03;14.60;99.90
23520;DHT22;11936;50.820;4.336;2022-10-16T06:59:29;14.70;99.90
23520;DHT22;11936;50.820;4.336;2022-10-16T07:01:54;14.80;99.90
23520;DHT22;11936;50.820;4.336;2022-10-16T07:04:20;14.80;99.90
23520;DHT22;11936;50.820;4.336;2022-10-16T07:06:45;14.70;99.90
23520;DHT22;11936;50.820;4.336;2022-10-16T07:09:11;14.80;99.90
23520;DHT22;11936;50.820;4.336;2022-10-16T07:11:39;14.70;99.90
23520;DHT22;11936;50.820;4.336;2022-10-16T07:14:09;14.70;99.90
23520;DHT22;11936;50.820;4.336;2022-10-16T07:16:37;14.70;99.90
23520;DHT22;11936;50.820;4.336;2022-10-16T07:19:03;14.70;99.90
23520;DHT22;11936;50.820;4.336;2022-10-16T07:21:32;14.80;99.90
23520;DHT22;11936;50.820;4.336;2022-10-16T07:24:01;14.90;99.90
23520;DHT22;11936;50.820;4.336;2022-10-16T07:26:28;14.80;99.90
23520;DHT22;11936;50.820;4.336;2022-10-16T07:28:54;14.80;99.90
23520;DHT22;11936;50.820;4.336;2022-10-16T07:31:20;14.80;99.90
23520;DHT22;11936;50.820;4.336;2022-10-16T07:33:47;14.80;99.90
23520;DHT22;11936;50.820;4.336;2022-10-16T07:36:14;14.80;99.90
23520;DHT22;11936;50.820;4.336;2022-10-16T07:38:40;14.80;99.90
23520;DHT22;11936;50.820;4.336;2022-10-16T07:41:10;14.80;99.90
23520;DHT22;11936;50.820;4.336;2022-10-16T07:43:36;14.80;99.90
23520;DHT22;11936;50.820;4.336;2022-10-16T07:46:02;14.80;99.90
23520;DHT22;11936;50.820;4.336;2022-10-16T07:48:30;14.90;99.90
23520;DHT22;11936;50.820;4.336;2022-10-16T07:51:04;14.90;99.90
23520;DHT22;11936;50.820;4.336;2022-10-16T07:53:30;15.00;99.90
23520;DHT22;11936;50.820;4.336;2022-10-16T07:56:03;15.10;99.90
23520;DHT22;11936;50.820;4.336;2022-10-16T07:58:30;15.10;99.90
23520;DHT22;11936;50.820;4.336;2022-10-16T08:00:56;15.20;99.90
23520;DHT22;11936;50.820;4.336;2022-10-16T08:03:22;15.30;99.90
23520;DHT22;11936;50.820;4.336;2022-10-16T08:05:47;15.40;99.90
23520;DHT22;11936;50.820;4.336;2022-10-16T08:08:14;15.30;99.90
23520;DHT22;11936;50.820;4.336;2022-10-16T08:10:40;15.30;99.90
23520;DHT22;11936;50.820;4.336;2022-10-16T08:13:05;15.30;99.90
23520;DHT22;11936;50.820;4.336;2022-10-16T08:15:31;15.40;99.90
23520;DHT22;11936;50.820;4.336;2022-10-16T08:17:59;15.40;99.90
23520;DHT22;11936;50.820;4.336;2022-10-16T08:20:26;15.40;99.90
23520;DHT22;11936;50.820;4.336;2022-10-16T08:22:52;15.40;99.90
23520;DHT22;11936;50.820;4.336;2022-10-16T08:25:19;15.40;99.90
23520;DHT22;11936;50.820;4.336;2022-10-16T08:27:45;15.50;99.90
23520;DHT22;11936;50.820;4.336;2022-10-16T08:30:11;15.50;99.90
23520;DHT22;11936;50.820;4.336;2022-10-16T08:32:37;15.40;99.90
23520;DHT22;11936;50.820;4.336;2022-10-16T08:35:03;15.40;99.90
23520;DHT22;11936;50.820;4.336;2022-10-16T08:37:32;15.50;99.90
23520;DHT22;11936;50.820;4.336;2022-10-16T08:39:58;15.60;99.90
23520;DHT22;11936;50.820;4.336;2022-10-16T08:45:14;15.60;99.90
23520;DHT22;11936;50.820;4.336;2022-10-16T08:50:30;15.70;99.90
23520;DHT22;11936;50.820;4.336;2022-10-16T08:52:57;15.80;99.90
23520;DHT22;11936;50.820;4.336;2022-10-16T08:55:41;15.80;99.90
23520;DHT22;11936;50.820;4.336;2022-10-16T08:58:18;15.80;99.90
23520;DHT22;11936;50.820;4.336;2022-10-16T09:00:47;15.70;99.90
23520;DHT22;11936;50.820;4.336;2022-10-16T09:06:37;15.80;99.90
23520;DHT22;11936;50.820;4.336;2022-10-16T09:16:38;15.90;99.90
23520;DHT22;11936;50.820;4.336;2022-10-16T09:21:37;16.00;99.90
23520;DHT22;11936;50.820;4.336;2022-10-16T09:24:25;16.10;99.90
23520;DHT22;11936;50.820;4.336;2022-10-16T09:26:51;16.20;99.90
23520;DHT22;11936;50.820;4.336;2022-10-16T09:29:19;16.30;99.90
23520;DHT22;11936;50.820;4.336;2022-10-16T09:31:51;16.30;99.90
23520;DHT22;11936;50.820;4.336;2022-10-16T09:34:35;16.40;99.90
23520;DHT22;11936;50.820;4.336;2022-10-16T09:37:09;16.40;99.90
23520;DHT22;11936;50.820;4.336;2022-10-16T09:39:47;16.40;99.90
23520;DHT22;11936;50.820;4.336;2022-10-16T09:42:38;16.60;99.90
23520;DHT22;11936;50.820;4.336;2022-10-16T09:45:03;16.60;99.90
23520;DHT22;11936;50.820;4.336;2022-10-16T09:47:31;16.60;99.90
23520;DHT22;11936;50.820;4.336;2022-10-16T09:50:02;16.70;99.90
23520;DHT22;11936;50.820;4.336;2022-10-16T09:52:32;16.70;99.90
23520;DHT22;11936;50.820;4.336;2022-10-16T09:54:59;16.60;99.90
23520;DHT22;11936;50.820;4.336;2022-10-16T09:57:26;16.70;99.90
23520;DHT22;11936;50.820;4.336;2022-10-16T09:59:54;16.60;99.90
23520;DHT22;11936;50.820;4.336;2022-10-16T10:02:29;16.70;99.90
23520;DHT22;11936;50.820;4.336;2022-10-16T10:04:56;16.60;99.90
23520;DHT22;11936;50.820;4.336;2022-10-16T10:07:31;16.60;99.90
23520;DHT22;11936;50.820;4.336;2022-10-16T10:10:02;16.80;99.90
23520;DHT22;11936;50.820;4.336;2022-10-16T10:12:30;16.90;99.90
23520;DHT22;11936;50.820;4.336;2022-10-16T10:15:03;16.90;99.90
23520;DHT22;11936;50.820;4.336;2022-10-16T10:17:29;16.90;99.90
23520;DHT22;11936;50.820;4.336;2022-10-16T10:19:57;16.80;99.90
23520;DHT22;11936;50.820;4.336;2022-10-16T10:22:38;16.90;99.90
23520;DHT22;11936;50.820;4.336;2022-10-16T10:35:48;17.10;99.90
23520;DHT22;11936;50.820;4.336;2022-10-16T10:38:20;17.10;99.90
23520;DHT22;11936;50.820;4.336;2022-10-16T10:41:02;17.10;99.90
23520;DHT22;11936;50.820;4.336;2022-10-16T10:46:38;17.10;99.90
23520;DHT22;11936;50.820;4.336;2022-10-16T11:00:29;17.40;99.90
23520;DHT22;11936;50.820;4.336;2022-10-16T11:06:26;17.50;99.90
23520;DHT22;11936;50.820;4.336;2022-10-16T11:11:45;17.50;99.90
23520;DHT22;11936;50.820;4.336;2022-10-16T11:15:00;17.60;99.90
23520;DHT22;11936;50.820;4.336;2022-10-16T11:17:22;17.70;99.90
23520;DHT22;11936;50.820;4.336;2022-10-16T11:22:24;17.90;99.90
23520;DHT22;11936;50.820;4.336;2022-10-16T11:27:50;17.90;99.90
23520;DHT22;11936;50.820;4.336;2022-10-16T11:30:21;17.90;99.90
23520;DHT22;11936;50.820;4.336;2022-10-16T11:35:32;17.90;99.90
23520;DHT22;11936;50.820;4.336;2022-10-16T11:38:04;17.90;99.90
23520;DHT22;11936;50.820;4.336;2022-10-16T11:40:38;18.00;99.90
23520;DHT22;11936;50.820;4.336;2022-10-16T11:43:38;18.10;99.90
23520;DHT22;11936;50.820;4.336;2022-10-16T11:46:15;18.20;99.90
23520;DHT22;11936;50.820;4.336;2022-10-16T11:49:02;18.20;99.90
23520;DHT22;11936;50.820;4.336;2022-10-16T11:51:39;18.10;99.90
23520;DHT22;11936;50.820;4.336;2022-10-16T11:56:39;18.00;99.90
23520;DHT22;11936;50.820;4.336;2022-10-16T12:02:16;17.80;99.90
23520;DHT22;11936;50.820;4.336;2022-10-16T12:04:53;17.90;99.90
23520;DHT22;11936;50.820;4.336;2022-10-16T12:07:24;18.00;99.90
23520;DHT22;11936;50.820;4.336;2022-10-16T12:09:52;18.20;99.90
23520;DHT22;11936;50.820;4.336;2022-10-16T12:15:01;18.30;99.90
23520;DHT22;11936;50.820;4.336;2022-10-16T12:17:36;18.30;99.90
23520;DHT22;11936;50.820;4.336;2022-10-16T12:22:41;18.40;99.90
23520;DHT22;11936;50.820;4.336;2022-10-16T12:25:33;18.50;99.90
23520;DHT22;11936;50.820;4.336;2022-10-16T12:28:17;18.50;99.90
23520;DHT22;11936;50.820;4.336;2022-10-16T12:30:52;18.50;99.90
23520;DHT22;11936;50.820;4.336;2022-10-16T12:33:29;18.50;99.90
23520;DHT22;11936;50.820;4.336;2022-10-16T12:35:56;18.50;99.90
23520;DHT22;11936;50.820;4.336;2022-10-16T12:38:29;18.60;99.90
23520;DHT22;11936;50.820;4.336;2022-10-16T12:41:02;18.80;99.90
23520;DHT22;11936;50.820;4.336;2022-10-16T12:48:26;18.70;99.90
23520;DHT22;11936;50.820;4.336;2022-10-16T12:50:52;18.80;99.90
23520;DHT22;11936;50.820;4.336;2022-10-16T12:53:23;18.90;99.90
23520;DHT22;11936;50.820;4.336;2022-10-16T12:55:55;18.90;99.90
23520;DHT22;11936;50.820;4.336;2022-10-16T13:06:45;19.00;99.90
23520;DHT22;11936;50.820;4.336;2022-10-16T13:17:23;19.10;99.90
23520;DHT22;11936;50.820;4.336;2022-10-16T13:20:30;19.10;99.90
23520;DHT22;11936;50.820;4.336;2022-10-16T13:23:21;19.10;99.90
23520;DHT22;11936;50.820;4.336;2022-10-16T13:28:38;19.10;99.90
23520;DHT22;11936;50.820;4.336;2022-10-16T13:31:05;19.10;99.90
23520;DHT22;11936;50.820;4.336;2022-10-16T13:33:33;19.10;99.90
23520;DHT22;11936;50.820;4.336;2022-10-16T13:36:00;19.20;99.90
23520;DHT22;11936;50.820;4.336;2022-10-16T13:38:31;19.20;99.90
23520;DHT22;11936;50.820;4.336;2022-10-16T13:41:15;19.30;99.90
23520;DHT22;11936;50.820;4.336;2022-10-16T13:43:50;19.20;99.90
23520;DHT22;11936;50.820;4.336;2022-10-16T13:46:19;19.30;99.90
23520;DHT22;11936;50.820;4.336;2022-10-16T13:49:03;19.40;99.90
23520;DHT22;11936;50.820;4.336;2022-10-16T13:51:30;19.30;99.90
23520;DHT22;11936;50.820;4.336;2022-10-16T13:53:56;19.00;99.90
23520;DHT22;11936;50.820;4.336;2022-10-16T13:56:26;19.00;99.90
23520;DHT22;11936;50.820;4.336;2022-10-16T13:59:00;19.20;99.90
23520;DHT22;11936;50.820;4.336;2022-10-16T14:01:34;19.30;99.90
23520;DHT22;11936;50.820;4.336;2022-10-16T14:04:06;19.30;99.90
23520;DHT22;11936;50.820;4.336;2022-10-16T14:06:33;19.40;99.90
23520;DHT22;11936;50.820;4.336;2022-10-16T14:09:09;19.40;99.90
23520;DHT22;11936;50.820;4.336;2022-10-16T14:12:08;19.40;99.90
23520;DHT22;11936;50.820;4.336;2022-10-16T14:14:40;19.30;99.90
23520;DHT22;11936;50.820;4.336;2022-10-16T14:17:06;19.20;99.90
23520;DHT22;11936;50.820;4.336;2022-10-16T14:19:38;19.10;99.90
23520;DHT22;11936;50.820;4.336;2022-10-16T14:22:27;19.10;99.90
23520;DHT22;11936;50.820;4.336;2022-10-16T14:24:54;19.10;99.90
23520;DHT22;11936;50.820;4.336;2022-10-16T14:27:34;19.10;99.90
23520;DHT22;11936;50.820;4.336;2022-10-16T14:32:42;19.20;99.90
23520;DHT22;11936;50.820;4.336;2022-10-16T14:35:33;19.20;99.90
23520;DHT22;11936;50.820;4.336;2022-10-16T14:38:00;19.20;99.90
23520;DHT22;11936;50.820;4.336;2022-10-16T14:40:33;19.20;99.90
23520;DHT22;11936;50.820;4.336;2022-10-16T14:42:59;19.20;99.90
23520;DHT22;11936;50.820;4.336;2022-10-16T14:45:28;19.10;99.90
23520;DHT22;11936;50.820;4.336;2022-10-16T14:48:00;19.10;99.90
23520;DHT22;11936;50.820;4.336;2022-10-16T14:50:26;18.90;99.90
23520;DHT22;11936;50.820;4.336;2022-10-16T14:52:53;18.80;99.90
23520;DHT22;11936;50.820;4.336;2022-10-16T14:55:18;19.00;99.90
23520;DHT22;11936;50.820;4.336;2022-10-16T14:57:45;19.00;99.90
23520;DHT22;11936;50.820;4.336;2022-10-16T15:00:20;19.10;99.90
23520;DHT22;11936;50.820;4.336;2022-10-16T15:02:48;19.20;99.90
23520;DHT22;11936;50.820;4.336;2022-10-16T15:05:16;19.20;99.90
23520;DHT22;11936;50.820;4.336;2022-10-16T15:07:42;19.20;99.90
23520;DHT22;11936;50.820;4.336;2022-10-16T15:10:08;19.30;99.90
23520;DHT22;11936;50.820;4.336;2022-10-16T15:12:34;19.40;99.90
23520;DHT22;11936;50.820;4.336;2022-10-16T15:14:59;19.30;99.90
23520;DHT22;11936;50.820;4.336;2022-10-16T15:17:25;19.30;99.90
23520;DHT22;11936;50.820;4.336;2022-10-16T15:19:50;19.30;99.90
23520;DHT22;11936;50.820;4.336;2022-10-16T15:22:16;19.30;99.90
23520;DHT22;11936;50.820;4.336;2022-10-16T15:24:42;19.30;99.90
23520;DHT22;11936;50.820;4.336;2022-10-16T15:27:08;19.30;99.90
23520;DHT22;11936;50.820;4.336;2022-10-16T15:29:33;19.20;99.90
23520;DHT22;11936;50.820;4.336;2022-10-16T15:31:59;19.20;99.90
23520;DHT22;11936;50.820;4.336;2022-10-16T15:34:25;19.30;99.90
23520;DHT22;11936;50.820;4.336;2022-10-16T15:36:50;19.20;99.90
23520;DHT22;11936;50.820;4.336;2022-10-16T15:39:19;19.10;99.90
23520;DHT22;11936;50.820;4.336;2022-10-16T15:41:46;19.10;99.90
23520;DHT22;11936;50.820;4.336;2022-10-16T15:44:19;19.10;99.90
23520;DHT22;11936;50.820;4.336;2022-10-16T15:46:45;19.10;99.90
23520;DHT22;11936;50.820;4.336;2022-10-16T15:49:11;19.10;99.90
23520;DHT22;11936;50.820;4.336;2022-10-16T15:51:41;19.00;99.90
23520;DHT22;11936;50.820;4.336;2022-10-16T15:54:08;19.00;99.90
23520;DHT22;11936;50.820;4.336;2022-10-16T15:56:34;18.90;99.90
23520;DHT22;11936;50.820;4.336;2022-10-16T15:59:03;18.90;99.90
23520;DHT22;11936;50.820;4.336;2022-10-16T16:01:32;19.00;99.90
23520;DHT22;11936;50.820;4.336;2022-10-16T16:03:58;18.90;99.90
23520;DHT22;11936;50.820;4.336;2022-10-16T16:06:23;18.90;99.90
23520;DHT22;11936;50.820;4.336;2022-10-16T16:08:50;18.80;99.90
23520;DHT22;11936;50.820;4.336;2022-10-16T16:11:17;18.80;99.90
23520;DHT22;11936;50.820;4.336;2022-10-16T16:13:43;18.80;99.90
23520;DHT22;11936;50.820;4.336;2022-10-16T16:16:14;18.70;99.90
23520;DHT22;11936;50.820;4.336;2022-10-16T16:18:40;18.70;99.90
23520;DHT22;11936;50.820;4.336;2022-10-16T16:21:07;18.70;99.90
23520;DHT22;11936;50.820;4.336;2022-10-16T16:23:33;18.70;99.90
23520;DHT22;11936;50.820;4.336;2022-10-16T16:26:04;18.60;99.90
23520;DHT22;11936;50.820;4.336;2022-10-16T16:28:29;18.60;99.90
23520;DHT22;11936;50.820;4.336;2022-10-16T16:30:55;18.60;99.90
23520;DHT22;11936;50.820;4.336;2022-10-16T16:33:21;18.60;99.90
23520;DHT22;11936;50.820;4.336;2022-10-16T16:35:46;18.50;99.90
23520;DHT22;11936;50.820;4.336;2022-10-16T16:38:12;18.60;99.90
23520;DHT22;11936;50.820;4.336;2022-10-16T16:40:37;18.50;99.90
23520;DHT22;11936;50.820;4.336;2022-10-16T16:43:03;18.50;99.90
23520;DHT22;11936;50.820;4.336;2022-10-16T16:45:29;18.40;99.90
23520;DHT22;11936;50.820;4.336;2022-10-16T16:47:55;18.40;99.90
23520;DHT22;11936;50.820;4.336;2022-10-16T16:50:20;18.40;99.90
23520;DHT22;11936;50.820;4.336;2022-10-16T16:52:46;18.40;99.90
23520;DHT22;11936;50.820;4.336;2022-10-16T16:55:11;18.50;99.90
23520;DHT22;11936;50.820;4.336;2022-10-16T16:57:37;18.40;99.90
23520;DHT22;11936;50.820;4.336;2022-10-16T17:00:04;18.40;99.90
23520;DHT22;11936;50.820;4.336;2022-10-16T17:02:29;18.40;99.90
23520;DHT22;11936;50.820;4.336;2022-10-16T17:04:55;18.40;99.90
23520;DHT22;11936;50.820;4.336;2022-10-16T17:07:22;18.30;99.90
23520;DHT22;11936;50.820;4.336;2022-10-16T17:09:50;18.30;99.90
23520;DHT22;11936;50.820;4.336;2022-10-16T17:12:16;18.30;99.90
23520;DHT22;11936;50.820;4.336;2022-10-16T17:14:41;18.40;99.90
23520;DHT22;11936;50.820;4.336;2022-10-16T17:17:07;18.30;99.90
23520;DHT22;11936;50.820;4.336;2022-10-16T17:19:32;18.30;99.90
23520;DHT22;11936;50.820;4.336;2022-10-16T17:21:58;18.20;99.90
23520;DHT22;11936;50.820;4.336;2022-10-16T17:24:23;18.20;99.90
23520;DHT22;11936;50.820;4.336;2022-10-16T17:26:49;18.20;99.90
23520;DHT22;11936;50.820;4.336;2022-10-16T17:29:16;18.10;99.90
23520;DHT22;11936;50.820;4.336;2022-10-16T17:31:43;18.10;99.90
23520;DHT22;11936;50.820;4.336;2022-10-16T17:34:09;18.10;99.90